Portada
METAR-TAF:

METAR-TAF

Aeropuertos :

Jacksonville Municipal Airport

Jacksonville, Illinois, Estados Unidos

latitud: 39-46-27N, longitud: 090-14-19W, altitud: 190 m

Observación

El informe se hizo hace 12 minutos, a las 13:15 UTC
Viento 3 kt del noreste
Temperatura -5°C
Humedad 93%
Presión 1025 hPa
Visibilidad: 16.1 km
Cielo cubierto a una altura de 4300 ft

METAR: KIJX 271315Z AUTO 04003KT 10SM OVC043 M05/M06 A3027 RMK AO2 T10521060

Hora: 07:27 (13:27 UTC)


TAF: falta

Observaciones y pronósticos meteorológicos de más de 4000 aeropuertos (mensajes METAR y TAF).

Los puntos amarillos y rojos representan las estaciones disponibles.

Ponga el ratón en el punto deseado para ver el nombre de la estación.

Haga clic para ver las observaciones y los pronósticos meteorológicos.

Para cambiar el mapa : haga clic en los botones verdes con una cruz de color negro para hacer un zoom, en el botón verde con un guión para alejar o en las flechas verdes para mapas adyacentes.


METAR-TAF: